Mimer — OIZX — position and weather

sailwx.info

Track history (hours):
 
Tides and Currents Weather Stations Pressure Air Temp Water Temp Dewpoint Dewpoint Depression Visibility Wind Speed Wind Dir Waves Ship Positions

Mimer

Last reported at 2017-Dec-16 17:42 UTC. Time now 2017-Dec-17 02:42 UTC.
Position N 17°57' W 063°39'.

Length 108 m; draft 5.2 m.

Type: Cargo ship. MMSI: 230185000.

Date/timePositionNaut miles runAvg speedWind from/ knotsBaromVisibWave heightAir tempDewpointWater temp
2017-Dec-16 17:42N 17°57' W 063°39'314.0
2017-Dec-16 17:30N 17°58' W 063°37'814.0
2017-Dec-16 16:58N 17°60' W 063°29'714.1
2017-Dec-16 16:29N 18°02' W 063°22'814.1
2017-Dec-16 15:56N 18°04' W 063°15'613.9
2017-Dec-16 15:29N 18°06' W 063°08'3 5.7
2017-Dec-16 14:59N 18°05' W 063°05'0 0.0
2017-Dec-16 14:30N 18°05' W 063°05'0 0.0
2017-Dec-16 14:00N 18°05' W 063°05'0 0.0
2017-Dec-16 13:26N 18°05' W 063°05'0 0.0
2017-Dec-16 12:57N 18°05' W 063°05'0 0.0
2017-Dec-16 12:26N 18°05' W 063°05'0 0.0
2017-Dec-16 12:00N 18°05' W 063°05'0 0.0
2017-Dec-16 11:29N 18°05' W 063°05'0 0.0
2017-Dec-16 10:59N 18°05' W 063°05'0 0.0
2017-Dec-16 10:29N 18°05' W 063°05'0 0.4
2017-Dec-16 09:49N 18°05' W 063°05'3 8.2
2017-Dec-16 09:30N 18°06' W 063°08'610.5
2017-Dec-16 08:57N 18°06' W 063°14'510.8
2017-Dec-16 08:30N 18°07' W 063°19'610.6
2017-Dec-16 07:58N 18°07' W 063°25'510.5
2017-Dec-16 07:30N 18°08' W 063°30'510.3
2017-Dec-16 07:00N 18°08' W 063°36'  
2017-Dec-13 13:18N 18°24' W 064°36'412.8
2017-Dec-13 13:00N 18°20' W 064°38'612.1
2017-Dec-13 12:30N 18°17' W 064°43'713.4
2017-Dec-13 12:00N 18°17' W 064°50'713.1
2017-Dec-13 11:29N 18°18' W 064°57'2 4.9
2017-Dec-13 11:00N 18°20' W 064°57'0 0.1
2017-Dec-13 10:30N 18°20' W 064°57'0 0.0
2017-Dec-13 10:00N 18°20' W 064°57'0 0.0
2017-Dec-13 09:30N 18°20' W 064°57'0 0.0
2017-Dec-13 09:00N 18°20' W 064°57'0 0.0
2017-Dec-13 08:30N 18°20' W 064°57'0 0.0
2017-Dec-13 08:00N 18°20' W 064°57'0 0.0
2017-Dec-13 07:27N 18°20' W 064°57'0 0.0
2017-Dec-13 06:57N 18°20' W 064°57'0 0.0
2017-Dec-13 06:30N 18°20' W 064°57'0 0.0
2017-Dec-13 06:00N 18°20' W 064°57'0 0.0
2017-Dec-13 05:30N 18°20' W 064°57'0 0.0
2017-Dec-13 04:54N 18°20' W 064°57'0 0.0
2017-Dec-13 04:29N 18°20' W 064°57'0 0.0
2017-Dec-13 03:56N 18°20' W 064°57'0 0.0
2017-Dec-13 03:30N 18°20' W 064°57'2 4.9
2017-Dec-13 03:00N 18°19' W 064°59'510.0
2017-Dec-13 02:30N 18°19' W 065°04'13 1.0
2017-Dec-12 12:45N 18°23' W 065°17'413.9
2017-Dec-12 12:28N 18°22' W 065°13'713.9
2017-Dec-12 12:00N 18°19' W 065°07'713.4
2017-Dec-12 11:30N 18°16' W 065°01'714.0
2017-Dec-12 11:00N 18°13' W 064°55'714.3
2017-Dec-12 10:30N 18°10' W 064°48'7414.1
2017-Dec-12 05:17N 17°48' W 063°33'713.9
2017-Dec-12 04:47N 17°46' W 063°26'513.9
2017-Dec-12 04:24N 17°42' W 063°22'814.0
2017-Dec-12 03:51N 17°37' W 063°17'614.0
2017-Dec-12 03:26N 17°33' W 063°12'713.9
2017-Dec-12 02:54N 17°29' W 063°06'614.0
2017-Dec-12 02:30N 17°26' W 063°01'713.8
2017-Dec-12 01:58N 17°21' W 062°55'913.9
2017-Dec-12 01:18N 17°16' W 062°47'3 1.4
2017-Dec-11 22:53N 17°17' W 062°43'1311.2
2017-Dec-11 21:43N 17°22' W 062°56'312.3
2017-Dec-11 21:29N 17°23' W 062°58'711.8
2017-Dec-11 20:56N 17°27' W 063°04'612.4
2017-Dec-11 20:29N 17°33' W 063°05'812.3
2017-Dec-11 19:49N 17°41' W 063°07'412.2
2017-Dec-11 19:28N 17°45' W 063°08'712.3
2017-Dec-11 18:55N 17°51' W 063°09'913.6
2017-Dec-11 18:17N 17°60' W 063°10'610.0
2017-Dec-11 17:40N 18°05' W 063°07'2 8.0
2017-Dec-11 17:28N 18°05' W 063°05'0 0.0
2017-Dec-11 16:53N 18°05' W 063°05'0 0.0
2017-Dec-11 16:23N 18°05' W 063°05'0 0.0
2017-Dec-11 15:54N 18°05' W 063°05'0 0.0
2017-Dec-11 15:26N 18°05' W 063°05'0 0.0
2017-Dec-11 14:53N 18°05' W 063°05'0 0.4
2017-Dec-11 14:22N 18°05' W 063°05'3 8.7
2017-Dec-11 13:59N 18°06' W 063°09'812.9
2017-Dec-11 13:24N 18°06' W 063°17'512.3
2017-Dec-11 12:59N 18°07' W 063°22'612.6
2017-Dec-11 12:30N 18°08' W 063°28'7311.7
2017-Dec-11 06:16N 18°16' W 064°44'312.7
2017-Dec-11 06:00N 18°17' W 064°48'612.7
2017-Dec-11 05:30N 18°18' W 064°54'3 5.8
2017-Dec-11 04:58N 18°20' W 064°57'0 0.2
2017-Dec-11 04:28N 18°20' W 064°57'0 0.0
2017-Dec-11 03:58N 18°20' W 064°57'0 0.0
2017-Dec-11 03:28N 18°20' W 064°57'0 0.0
2017-Dec-11 02:58N 18°20' W 064°57'0 0.0
2017-Dec-11 02:28N 18°20' W 064°57'0 0.0
2017-Dec-11 01:58N 18°20' W 064°57'0 0.0
2017-Dec-11 01:28N 18°20' W 064°57'0 0.0
2017-Dec-11 00:58N 18°20' W 064°57'0 0.0
2017-Dec-11 00:28N 18°20' W 064°57'0 0.0
2017-Dec-10 23:58N 18°20' W 064°57'0 0.0
2017-Dec-10 23:30N 18°20' W 064°57'2 3.3
2017-Dec-10 23:00N 18°19' W 064°58'3 6.1
2017-Dec-10 22:30N 18°17' W 065°00'4 7.4
2017-Dec-10 22:00N 18°18' W 065°04'611.5
2017-Dec-10 21:29N 18°21' W 065°10'611.8
2017-Dec-10 21:01N 18°23' W 065°15'6 0.4
2017-Dec-10 06:34N 18°24' W 065°22'110.0
2017-Dec-10 06:28N 18°23' W 065°21'5 9.8
2017-Dec-10 06:00N 18°23' W 065°16'5 9.7
2017-Dec-10 05:30N 18°21' W 065°11'510.1
2017-Dec-10 05:00N 18°16' W 065°10'5 9.8
2017-Dec-10 04:30N 18°12' W 065°08'5 9.7
2017-Dec-10 04:00N 18°07' W 065°06'510.2
2017-Dec-10 03:30N 18°02' W 065°04'510.1
2017-Dec-10 03:00N 17°58' W 065°02'78 6.5
2017-Dec-09 15:04N 17°57' W 063°40'113.3
2017-Dec-09 14:59N 17°57' W 063°39'713.4
2017-Dec-09 14:29N 17°59' W 063°32'713.3
2017-Dec-09 13:58N 18°01' W 063°25'713.6
2017-Dec-09 13:29N 18°03' W 063°18'713.0
2017-Dec-09 12:55N 18°05' W 063°11'512.3
2017-Dec-09 12:30N 18°05' W 063°06'0 0.8
2017-Dec-09 11:52N 18°05' W 063°05'0 0.0
2017-Dec-09 11:22N 18°05' W 063°05'0 0.0
2017-Dec-09 10:52N 18°05' W 063°05'0 0.0
2017-Dec-09 10:22N 18°05' W 063°05'0 0.6
2017-Dec-09 09:59N 18°05' W 063°05'510.1
2017-Dec-09 09:29N 18°06' W 063°11'511.3
2017-Dec-09 09:00N 18°06' W 063°16'611.0
2017-Dec-09 08:25N 18°07' W 063°23'511.3
2017-Dec-09 08:00N 18°08' W 063°28'7111.6
2017-Dec-09 01:52N 18°16' W 064°42'412.0
2017-Dec-09 01:30N 18°16' W 064°47'612.1
2017-Dec-09 01:01N 18°17' W 064°53'5 9.1
2017-Dec-09 00:30N 18°20' W 064°57'0 0.1
2017-Dec-09 00:00N 18°20' W 064°57'0 0.0
2017-Dec-08 23:28N 18°20' W 064°57'0 0.0
2017-Dec-08 22:55N 18°20' W 064°57'0 0.0
2017-Dec-08 22:28N 18°20' W 064°57'0 0.0
2017-Dec-08 21:55N 18°20' W 064°57'0 0.0
2017-Dec-08 21:28N 18°20' W 064°57'0 0.0
2017-Dec-08 20:58N 18°20' W 064°57'0 0.0
2017-Dec-08 20:22N 18°20' W 064°57'0 0.0
2017-Dec-08 19:58N 18°20' W 064°57'0 0.0
2017-Dec-08 19:25N 18°20' W 064°57'0 0.0
2017-Dec-08 18:58N 18°20' W 064°57'0 0.0
2017-Dec-08 18:31N 18°20' W 064°57'0 0.0
2017-Dec-08 18:00N 18°20' W 064°57'0 0.0
2017-Dec-08 17:30N 18°20' W 064°57'0 0.0
2017-Dec-08 16:54N 18°20' W 064°57'0 0.0
2017-Dec-08 16:30N 18°20' W 064°57'0 0.0
2017-Dec-08 16:00N 18°20' W 064°57'0 0.0
2017-Dec-08 15:30N 18°20' W 064°57'0 0.0
2017-Dec-08 15:00N 18°20' W 064°57'1 1.1
2017-Dec-08 14:30N 18°20' W 064°57'5 9.5
2017-Dec-08 14:00N 18°18' W 065°02'  
Track history (hours):
 
Tides and Currents Weather Stations Pressure Air Temp Water Temp Dewpoint Dewpoint Depression Visibility Wind Speed Wind Dir Waves Ship Positions

Mimer

Last reported at 2017-Dec-16 17:42 UTC. Time now 2017-Dec-17 02:42 UTC.
Position N 17°57' W 063°39'.

Length 108 m; draft 5.2 m.

Type: Cargo ship. MMSI: 230185000.

Date/timePositionNaut miles runAvg speedWind from/ knotsBaromVisibWave heightAir tempDewpointWater temp
2017-Dec-16 17:42N 17°57' W 063°39'314.0
2017-Dec-16 17:30N 17°58' W 063°37'814.0
2017-Dec-16 16:58N 17°60' W 063°29'714.1
2017-Dec-16 16:29N 18°02' W 063°22'814.1
2017-Dec-16 15:56N 18°04' W 063°15'613.9
2017-Dec-16 15:29N 18°06' W 063°08'3 5.7
2017-Dec-16 14:59N 18°05' W 063°05'0 0.0
2017-Dec-16 14:30N 18°05' W 063°05'0 0.0
2017-Dec-16 14:00N 18°05' W 063°05'0 0.0
2017-Dec-16 13:26N 18°05' W 063°05'0 0.0
2017-Dec-16 12:57N 18°05' W 063°05'0 0.0
2017-Dec-16 12:26N 18°05' W 063°05'0 0.0
2017-Dec-16 12:00N 18°05' W 063°05'0 0.0
2017-Dec-16 11:29N 18°05' W 063°05'0 0.0
2017-Dec-16 10:59N 18°05' W 063°05'0 0.0
2017-Dec-16 10:29N 18°05' W 063°05'0 0.4
2017-Dec-16 09:49N 18°05' W 063°05'3 8.2
2017-Dec-16 09:30N 18°06' W 063°08'610.5
2017-Dec-16 08:57N 18°06' W 063°14'510.8
2017-Dec-16 08:30N 18°07' W 063°19'610.6
2017-Dec-16 07:58N 18°07' W 063°25'510.5
2017-Dec-16 07:30N 18°08' W 063°30'510.3
2017-Dec-16 07:00N 18°08' W 063°36'  
2017-Dec-13 13:18N 18°24' W 064°36'412.8
2017-Dec-13 13:00N 18°20' W 064°38'612.1
2017-Dec-13 12:30N 18°17' W 064°43'713.4
2017-Dec-13 12:00N 18°17' W 064°50'713.1
2017-Dec-13 11:29N 18°18' W 064°57'2 4.9
2017-Dec-13 11:00N 18°20' W 064°57'0 0.1
2017-Dec-13 10:30N 18°20' W 064°57'0 0.0
2017-Dec-13 10:00N 18°20' W 064°57'0 0.0
2017-Dec-13 09:30N 18°20' W 064°57'0 0.0
2017-Dec-13 09:00N 18°20' W 064°57'0 0.0
2017-Dec-13 08:30N 18°20' W 064°57'0 0.0
2017-Dec-13 08:00N 18°20' W 064°57'0 0.0
2017-Dec-13 07:27N 18°20' W 064°57'0 0.0
2017-Dec-13 06:57N 18°20' W 064°57'0 0.0
2017-Dec-13 06:30N 18°20' W 064°57'0 0.0
2017-Dec-13 06:00N 18°20' W 064°57'0 0.0
2017-Dec-13 05:30N 18°20' W 064°57'0 0.0
2017-Dec-13 04:54N 18°20' W 064°57'0 0.0
2017-Dec-13 04:29N 18°20' W 064°57'0 0.0
2017-Dec-13 03:56N 18°20' W 064°57'0 0.0
2017-Dec-13 03:30N 18°20' W 064°57'2 4.9
2017-Dec-13 03:00N 18°19' W 064°59'510.0
2017-Dec-13 02:30N 18°19' W 065°04'13 1.0
2017-Dec-12 12:45N 18°23' W 065°17'413.9
2017-Dec-12 12:28N 18°22' W 065°13'713.9
2017-Dec-12 12:00N 18°19' W 065°07'713.4
2017-Dec-12 11:30N 18°16' W 065°01'714.0
2017-Dec-12 11:00N 18°13' W 064°55'714.3
2017-Dec-12 10:30N 18°10' W 064°48'7414.1
2017-Dec-12 05:17N 17°48' W 063°33'713.9
2017-Dec-12 04:47N 17°46' W 063°26'513.9
2017-Dec-12 04:24N 17°42' W 063°22'814.0
2017-Dec-12 03:51N 17°37' W 063°17'614.0
2017-Dec-12 03:26N 17°33' W 063°12'713.9
2017-Dec-12 02:54N 17°29' W 063°06'614.0
2017-Dec-12 02:30N 17°26' W 063°01'713.8
2017-Dec-12 01:58N 17°21' W 062°55'913.9
2017-Dec-12 01:18N 17°16' W 062°47'3 1.4
2017-Dec-11 22:53N 17°17' W 062°43'1311.2
2017-Dec-11 21:43N 17°22' W 062°56'312.3
2017-Dec-11 21:29N 17°23' W 062°58'711.8
2017-Dec-11 20:56N 17°27' W 063°04'612.4
2017-Dec-11 20:29N 17°33' W 063°05'812.3
2017-Dec-11 19:49N 17°41' W 063°07'412.2
2017-Dec-11 19:28N 17°45' W 063°08'712.3
2017-Dec-11 18:55N 17°51' W 063°09'913.6
2017-Dec-11 18:17N 17°60' W 063°10'610.0
2017-Dec-11 17:40N 18°05' W 063°07'2 8.0
2017-Dec-11 17:28N 18°05' W 063°05'0 0.0
2017-Dec-11 16:53N 18°05' W 063°05'0 0.0
2017-Dec-11 16:23N 18°05' W 063°05'0 0.0
2017-Dec-11 15:54N 18°05' W 063°05'0 0.0
2017-Dec-11 15:26N 18°05' W 063°05'0 0.0
2017-Dec-11 14:53N 18°05' W 063°05'0 0.4
2017-Dec-11 14:22N 18°05' W 063°05'3 8.7
2017-Dec-11 13:59N 18°06' W 063°09'812.9
2017-Dec-11 13:24N 18°06' W 063°17'512.3
2017-Dec-11 12:59N 18°07' W 063°22'612.6
2017-Dec-11 12:30N 18°08' W 063°28'7311.7
2017-Dec-11 06:16N 18°16' W 064°44'312.7
2017-Dec-11 06:00N 18°17' W 064°48'612.7
2017-Dec-11 05:30N 18°18' W 064°54'3 5.8
2017-Dec-11 04:58N 18°20' W 064°57'0 0.2
2017-Dec-11 04:28N 18°20' W 064°57'0 0.0
2017-Dec-11 03:58N 18°20' W 064°57'0 0.0
2017-Dec-11 03:28N 18°20' W 064°57'0 0.0
2017-Dec-11 02:58N 18°20' W 064°57'0 0.0
2017-Dec-11 02:28N 18°20' W 064°57'0 0.0
2017-Dec-11 01:58N 18°20' W 064°57'0 0.0
2017-Dec-11 01:28N 18°20' W 064°57'0 0.0
2017-Dec-11 00:58N 18°20' W 064°57'0 0.0
2017-Dec-11 00:28N 18°20' W 064°57'0 0.0
2017-Dec-10 23:58N 18°20' W 064°57'0 0.0
2017-Dec-10 23:30N 18°20' W 064°57'2 3.3
2017-Dec-10 23:00N 18°19' W 064°58'3 6.1
2017-Dec-10 22:30N 18°17' W 065°00'4 7.4
2017-Dec-10 22:00N 18°18' W 065°04'611.5
2017-Dec-10 21:29N 18°21' W 065°10'611.8
2017-Dec-10 21:01N 18°23' W 065°15'6 0.4
2017-Dec-10 06:34N 18°24' W 065°22'110.0
2017-Dec-10 06:28N 18°23' W 065°21'5 9.8
2017-Dec-10 06:00N 18°23' W 065°16'5 9.7
2017-Dec-10 05:30N 18°21' W 065°11'510.1
2017-Dec-10 05:00N 18°16' W 065°10'5 9.8
2017-Dec-10 04:30N 18°12' W 065°08'5 9.7
2017-Dec-10 04:00N 18°07' W 065°06'510.2
2017-Dec-10 03:30N 18°02' W 065°04'510.1
2017-Dec-10 03:00N 17°58' W 065°02'78 6.5
2017-Dec-09 15:04N 17°57' W 063°40'113.3
2017-Dec-09 14:59N 17°57' W 063°39'713.4
2017-Dec-09 14:29N 17°59' W 063°32'713.3
2017-Dec-09 13:58N 18°01' W 063°25'713.6
2017-Dec-09 13:29N 18°03' W 063°18'713.0
2017-Dec-09 12:55N 18°05' W 063°11'512.3
2017-Dec-09 12:30N 18°05' W 063°06'0 0.8
2017-Dec-09 11:52N 18°05' W 063°05'0 0.0
2017-Dec-09 11:22N 18°05' W 063°05'0 0.0
2017-Dec-09 10:52N 18°05' W 063°05'0 0.0
2017-Dec-09 10:22N 18°05' W 063°05'0 0.6
2017-Dec-09 09:59N 18°05' W 063°05'510.1
2017-Dec-09 09:29N 18°06' W 063°11'511.3
2017-Dec-09 09:00N 18°06' W 063°16'611.0
2017-Dec-09 08:25N 18°07' W 063°23'511.3
2017-Dec-09 08:00N 18°08' W 063°28'7111.6
2017-Dec-09 01:52N 18°16' W 064°42'412.0
2017-Dec-09 01:30N 18°16' W 064°47'612.1
2017-Dec-09 01:01N 18°17' W 064°53'5 9.1
2017-Dec-09 00:30N 18°20' W 064°57'0 0.1
2017-Dec-09 00:00N 18°20' W 064°57'0 0.0
2017-Dec-08 23:28N 18°20' W 064°57'0 0.0
2017-Dec-08 22:55N 18°20' W 064°57'0 0.0
2017-Dec-08 22:28N 18°20' W 064°57'0 0.0
2017-Dec-08 21:55N 18°20' W 064°57'0 0.0
2017-Dec-08 21:28N 18°20' W 064°57'0 0.0
2017-Dec-08 20:58N 18°20' W 064°57'0 0.0
2017-Dec-08 20:22N 18°20' W 064°57'0 0.0
2017-Dec-08 19:58N 18°20' W 064°57'0 0.0
2017-Dec-08 19:25N 18°20' W 064°57'0 0.0
2017-Dec-08 18:58N 18°20' W 064°57'0 0.0
2017-Dec-08 18:31N 18°20' W 064°57'0 0.0
2017-Dec-08 18:00N 18°20' W 064°57'0 0.0
2017-Dec-08 17:30N 18°20' W 064°57'0 0.0
2017-Dec-08 16:54N 18°20' W 064°57'0 0.0
2017-Dec-08 16:30N 18°20' W 064°57'0 0.0
2017-Dec-08 16:00N 18°20' W 064°57'0 0.0
2017-Dec-08 15:30N 18°20' W 064°57'0 0.0
2017-Dec-08 15:00N 18°20' W 064°57'1 1.1
2017-Dec-08 14:30N 18°20' W 064°57'5 9.5
2017-Dec-08 14:00N 18°18' W 065°02'  

Dump ship's entire track history